Cranberry Portage, Canada
Current Conditions -  °F | °C
As of 7:00 AM on Monday 24 Nov 2014 (Local Time) from CYQD Reporting Station
Broken Clouds Broken Clouds  
Wind Chill: -6°   Ceiling: 7000
Heat Index: -6°   Visibility: 15mi
Dew Point: -9°   Wind: 2mph
Humidity: 84%   Direction: NA
Pressure: 29.92"   Gusts: NA
Location:  54.59°N, 101.38°W
Report Text: CYQD 241300Z VRB02KT 15SM BKN070 M21/M23 A2992 RMK AC7 SLP161
Loading
Personal Weather Stations






























Interactive Weather Map New forecast layout! Learn more

10-Day Weather Forecast

Advertisements
Track Severe Weather on mobile